createdAt,value
2018-09-02T00:01:50.770Z,16.30
2018-09-02T00:04:19.671Z,16.30
2018-09-02T00:06:48.578Z,16.30
2018-09-02T00:09:17.501Z,16.30
2018-09-02T00:11:46.557Z,16.30
2018-09-02T00:14:15.454Z,16.30
2018-09-02T00:16:44.331Z,16.30
2018-09-02T00:19:16.021Z,16.30
2018-09-02T00:21:44.894Z,16.30
2018-09-02T00:24:13.786Z,16.20
2018-09-02T00:26:42.685Z,16.10
2018-09-02T00:29:11.571Z,16.20
2018-09-02T00:31:40.474Z,16.10
2018-09-02T00:34:09.359Z,16.10
2018-09-02T00:36:38.259Z,16.10
2018-09-02T00:39:08.911Z,16.10
2018-09-02T00:41:38.750Z,16.00
2018-09-02T00:44:07.946Z,16.00
2018-09-02T00:46:36.839Z,15.90
2018-09-02T00:49:05.798Z,16.00
2018-09-02T00:51:34.723Z,16.00
2018-09-02T00:54:03.655Z,16.10
2018-09-02T00:56:32.658Z,16.10
2018-09-02T00:59:01.598Z,16.10
2018-09-02T01:01:30.541Z,16.00
2018-09-02T01:03:59.425Z,16.00
2018-09-02T01:06:28.382Z,15.90
2018-09-02T01:08:57.306Z,15.80
2018-09-02T01:11:26.189Z,15.90
2018-09-02T01:13:55.110Z,16.00
2018-09-02T01:16:24.027Z,15.90
2018-09-02T01:18:52.960Z,16.00
2018-09-02T01:21:21.860Z,15.90
2018-09-02T01:23:50.734Z,15.90
2018-09-02T01:26:19.622Z,15.90
2018-09-02T01:28:48.498Z,15.90
2018-09-02T01:31:17.386Z,15.90
2018-09-02T01:33:46.271Z,15.90
2018-09-02T01:36:15.156Z,15.80
2018-09-02T01:38:44.058Z,15.80
2018-09-02T01:41:12.945Z,15.80
2018-09-02T01:43:41.822Z,15.70
2018-09-02T01:46:10.711Z,15.80
2018-09-02T01:48:39.583Z,15.80
2018-09-02T01:51:08.567Z,15.80
2018-09-02T01:53:37.439Z,15.80
2018-09-02T01:56:06.345Z,15.70
2018-09-02T01:58:35.213Z,15.70
2018-09-02T02:01:04.146Z,15.70
2018-09-02T02:03:33.186Z,15.70
2018-09-02T02:06:02.130Z,15.70
2018-09-02T02:08:31.051Z,15.70
2018-09-02T02:10:59.970Z,15.70
2018-09-02T02:13:28.877Z,15.70
2018-09-02T02:15:57.798Z,15.60
2018-09-02T02:18:26.681Z,15.60
2018-09-02T02:20:55.624Z,15.60
2018-09-02T02:23:24.496Z,15.50
2018-09-02T02:25:53.392Z,15.50
2018-09-02T02:28:22.277Z,15.50
2018-09-02T02:30:51.145Z,15.40
2018-09-02T02:33:20.049Z,15.50
2018-09-02T02:35:48.934Z,15.50
2018-09-02T02:38:17.809Z,15.50
2018-09-02T02:40:46.686Z,15.40
2018-09-02T02:43:15.589Z,15.50
2018-09-02T02:45:44.476Z,15.50
2018-09-02T02:48:13.364Z,15.60
2018-09-02T02:50:42.266Z,15.60
2018-09-02T02:53:11.186Z,15.60
2018-09-02T02:55:40.070Z,15.60
2018-09-02T02:58:08.950Z,15.50
2018-09-02T03:00:37.855Z,15.70
2018-09-02T03:03:06.746Z,15.60
2018-09-02T03:05:36.042Z,15.70
2018-09-02T03:08:05.142Z,15.70
2018-09-02T03:10:34.046Z,15.70
2018-09-02T03:13:02.942Z,15.60
2018-09-02T03:15:31.846Z,15.60
2018-09-02T03:18:00.743Z,15.70
2018-09-02T03:20:29.707Z,15.60
2018-09-02T03:22:58.639Z,15.50
2018-09-02T03:25:27.536Z,15.50
2018-09-02T03:27:56.406Z,15.50
2018-09-02T03:30:25.294Z,15.50
2018-09-02T03:32:54.154Z,15.50
2018-09-02T03:35:23.034Z,15.50
2018-09-02T03:37:51.902Z,15.60
2018-09-02T03:40:20.786Z,15.60
2018-09-02T03:42:49.650Z,15.60
2018-09-02T03:45:18.534Z,15.50
2018-09-02T03:47:47.407Z,15.70
2018-09-02T03:50:16.301Z,15.60
2018-09-02T03:52:45.198Z,15.60
2018-09-02T03:55:14.134Z,15.60
2018-09-02T03:57:43.022Z,15.60
2018-09-02T04:00:11.944Z,15.50
2018-09-02T04:02:40.847Z,15.60
2018-09-02T04:05:09.736Z,15.60
2018-09-02T04:07:38.615Z,15.60
2018-09-02T04:10:07.552Z,15.40
2018-09-02T04:12:36.418Z,15.40
2018-09-02T04:15:06.234Z,15.40
2018-09-02T04:17:35.122Z,15.50
2018-09-02T04:20:04.294Z,15.50
2018-09-02T04:22:33.178Z,15.50
2018-09-02T04:25:02.105Z,15.50
2018-09-02T04:27:31.031Z,15.40
2018-09-02T04:29:59.898Z,15.30
2018-09-02T04:32:28.817Z,15.20
2018-09-02T04:34:57.766Z,15.20
2018-09-02T04:37:26.671Z,15.20
2018-09-02T04:39:55.634Z,15.20
2018-09-02T04:42:24.546Z,15.30
2018-09-02T04:44:53.539Z,15.30
2018-09-02T04:47:22.418Z,15.30
2018-09-02T04:49:51.282Z,15.30
2018-09-02T04:52:20.174Z,15.20
2018-09-02T04:54:49.051Z,15.20
2018-09-02T04:57:17.922Z,15.10
2018-09-02T04:59:46.778Z,15.10
2018-09-02T05:02:15.666Z,15.10
2018-09-02T05:04:44.547Z,15.00
2018-09-02T05:07:13.430Z,15.00
2018-09-02T05:09:42.362Z,15.00
2018-09-02T05:12:11.247Z,14.90
2018-09-02T05:14:40.110Z,14.80
2018-09-02T05:17:08.988Z,14.70
2018-09-02T05:19:37.866Z,14.70
2018-09-02T05:22:06.877Z,14.60
2018-09-02T05:24:35.784Z,14.60
2018-09-02T05:27:05.758Z,14.60
2018-09-02T05:29:34.654Z,14.60
2018-09-02T05:32:03.683Z,14.60
2018-09-02T05:34:32.601Z,14.60
2018-09-02T05:37:01.573Z,14.60
2018-09-02T05:39:30.523Z,14.70
2018-09-02T05:41:59.445Z,14.70
2018-09-02T05:44:28.334Z,14.60
2018-09-02T05:46:57.225Z,14.70
2018-09-02T05:49:26.098Z,14.70
2018-09-02T05:51:54.983Z,14.80
2018-09-02T05:54:23.974Z,14.70
2018-09-02T05:56:52.857Z,14.70
2018-09-02T05:59:21.741Z,14.60
2018-09-02T06:01:50.642Z,14.70
2018-09-02T06:04:19.561Z,14.60
2018-09-02T06:06:48.450Z,14.50
2018-09-02T06:09:17.330Z,14.60
2018-09-02T06:11:46.223Z,14.70
2018-09-02T06:14:15.110Z,14.60
2018-09-02T06:16:44.398Z,14.70
2018-09-02T06:19:13.296Z,14.60
2018-09-02T06:21:42.170Z,14.70
2018-09-02T06:24:11.047Z,14.70
2018-09-02T06:26:39.930Z,14.70
2018-09-02T06:29:08.805Z,14.70
2018-09-02T06:31:37.689Z,14.70
2018-09-02T06:34:06.565Z,14.70
2018-09-02T06:36:35.444Z,14.80
2018-09-02T06:39:06.466Z,14.80
2018-09-02T06:41:35.357Z,14.80
2018-09-02T06:44:04.318Z,14.80
2018-09-02T06:46:33.242Z,14.90
2018-09-02T06:49:02.171Z,15.00
2018-09-02T06:51:31.086Z,14.90
2018-09-02T06:53:59.974Z,14.90
2018-09-02T06:56:28.883Z,14.90
2018-09-02T06:58:57.774Z,15.00
2018-09-02T07:01:26.665Z,15.00
2018-09-02T07:03:55.554Z,15.00
2018-09-02T07:06:24.441Z,15.00
2018-09-02T07:08:53.313Z,14.90
2018-09-02T07:11:22.206Z,15.00
2018-09-02T07:13:51.086Z,15.00
2018-09-02T07:16:20.026Z,15.00
2018-09-02T07:18:48.886Z,15.00
2018-09-02T07:21:17.768Z,15.00
2018-09-02T07:23:46.644Z,15.10
2018-09-02T07:26:15.522Z,15.10
2018-09-02T07:28:44.405Z,15.20
2018-09-02T07:31:13.365Z,15.30
2018-09-02T07:33:42.199Z,15.40
2018-09-02T07:36:11.091Z,15.40
2018-09-02T07:38:40.005Z,15.40
2018-09-02T07:41:08.889Z,15.40
2018-09-02T07:43:37.826Z,15.40
2018-09-02T07:46:06.690Z,15.50
2018-09-02T07:48:35.599Z,15.40
2018-09-02T07:51:04.541Z,15.40
2018-09-02T07:53:33.439Z,15.40
2018-09-02T07:56:02.342Z,15.50
2018-09-02T07:58:31.246Z,15.50
2018-09-02T08:01:00.147Z,15.60
2018-09-02T08:03:29.082Z,15.70
2018-09-02T08:05:57.969Z,15.80
2018-09-02T08:08:26.865Z,15.80
2018-09-02T08:10:55.774Z,15.90
2018-09-02T08:13:24.663Z,16.00
2018-09-02T08:15:53.538Z,16.10
2018-09-02T08:18:22.434Z,15.90
2018-09-02T08:20:51.319Z,16.00
2018-09-02T08:23:20.246Z,16.00
2018-09-02T08:25:49.113Z,16.00
2018-09-02T08:28:18.057Z,15.90
2018-09-02T08:30:46.957Z,15.90
2018-09-02T08:33:15.845Z,15.70
2018-09-02T08:35:44.758Z,15.60
2018-09-02T08:38:13.650Z,15.60
2018-09-02T08:40:42.535Z,15.60
2018-09-02T08:43:11.418Z,15.70
2018-09-02T08:45:40.286Z,15.70
2018-09-02T08:48:09.178Z,15.70
2018-09-02T08:50:38.343Z,15.80
2018-09-02T08:53:09.399Z,15.70
2018-09-02T08:55:40.310Z,15.90
2018-09-02T08:58:13.699Z,15.90
2018-09-02T09:00:42.567Z,15.90
2018-09-02T09:03:11.498Z,15.80
2018-09-02T09:05:40.370Z,15.90
2018-09-02T09:08:09.391Z,15.90
2018-09-02T09:10:38.190Z,16.10
2018-09-02T09:13:07.090Z,16.30
2018-09-02T09:15:35.965Z,16.40
2018-09-02T09:18:05.208Z,16.50
2018-09-02T09:20:34.101Z,16.60
2018-09-02T09:23:03.062Z,16.60
2018-09-02T09:25:31.975Z,16.60
2018-09-02T09:28:00.888Z,16.60
2018-09-02T09:30:29.774Z,16.70
2018-09-02T09:32:58.733Z,16.80
2018-09-02T09:35:27.658Z,16.80
2018-09-02T09:37:56.582Z,16.90
2018-09-02T09:40:25.465Z,16.70
2018-09-02T09:42:54.385Z,16.90
2018-09-02T09:45:23.246Z,17.00
2018-09-02T09:47:52.186Z,17.00
2018-09-02T09:50:21.076Z,17.20
2018-09-02T09:52:49.985Z,17.30
2018-09-02T09:55:18.849Z,17.60
2018-09-02T09:57:47.761Z,17.80
2018-09-02T10:00:22.179Z,17.90
2018-09-02T10:02:51.063Z,18.00
2018-09-02T10:05:19.922Z,17.80
2018-09-02T10:07:48.825Z,17.70
2018-09-02T10:10:17.870Z,17.50
2018-09-02T10:12:46.845Z,17.50
2018-09-02T10:15:15.715Z,17.50
2018-09-02T10:17:44.592Z,17.40
2018-09-02T10:20:13.458Z,17.30
2018-09-02T10:22:42.378Z,17.10
2018-09-02T10:25:11.255Z,17.20
2018-09-02T10:27:40.143Z,17.20
2018-09-02T10:30:09.026Z,17.20
2018-09-02T10:32:37.959Z,17.20
2018-09-02T10:35:06.874Z,17.20
2018-09-02T10:37:35.757Z,17.20
2018-09-02T10:40:04.727Z,17.20
2018-09-02T10:42:33.635Z,17.20
2018-09-02T10:45:02.533Z,17.30
2018-09-02T10:47:31.461Z,17.20
2018-09-02T10:50:00.438Z,17.20
2018-09-02T10:52:29.347Z,17.20
2018-09-02T10:54:58.242Z,17.40
2018-09-02T10:57:27.175Z,17.40
2018-09-02T10:59:56.066Z,17.30
2018-09-02T11:02:24.962Z,17.30
2018-09-02T11:04:54.298Z,17.40
2018-09-02T11:07:23.426Z,17.30
2018-09-02T11:09:52.373Z,17.20
2018-09-02T11:12:21.275Z,17.00
2018-09-02T11:14:50.165Z,17.10
2018-09-02T11:17:19.062Z,17.00
2018-09-02T11:19:47.938Z,17.20
2018-09-02T11:22:16.919Z,17.20
2018-09-02T11:24:45.817Z,17.40
2018-09-02T11:27:14.710Z,17.50
2018-09-02T11:29:43.631Z,17.60
2018-09-02T11:32:12.525Z,17.70
2018-09-02T11:34:41.399Z,17.70
2018-09-02T11:37:10.290Z,17.70
2018-09-02T11:39:39.163Z,17.80
2018-09-02T11:42:08.051Z,17.80
2018-09-02T11:44:36.950Z,17.70
2018-09-02T11:47:06.014Z,17.30
2018-09-02T11:49:34.889Z,17.30
2018-09-02T11:52:03.810Z,17.30
2018-09-02T11:54:32.714Z,17.30
2018-09-02T11:57:01.696Z,17.30
2018-09-02T11:59:30.579Z,17.20
2018-09-02T12:01:59.465Z,17.30
2018-09-02T12:04:28.387Z,17.30
2018-09-02T12:06:57.275Z,17.30
2018-09-02T12:09:26.163Z,17.40
2018-09-02T12:11:55.039Z,17.40
2018-09-02T12:14:23.937Z,17.50
2018-09-02T12:16:52.812Z,17.50
2018-09-02T12:19:21.774Z,17.50
2018-09-02T12:21:50.699Z,17.50
2018-09-02T12:24:19.954Z,17.50
2018-09-02T12:26:48.865Z,17.50
2018-09-02T12:29:17.945Z,17.40
2018-09-02T12:31:46.829Z,17.40
2018-09-02T12:34:15.734Z,17.30
2018-09-02T12:36:44.718Z,17.30
2018-09-02T12:39:13.617Z,17.40
2018-09-02T12:41:42.489Z,17.50
2018-09-02T12:44:11.377Z,17.50
2018-09-02T12:46:40.274Z,17.60
2018-09-02T12:49:09.161Z,17.60
2018-09-02T12:51:38.094Z,17.60
2018-09-02T12:54:07.134Z,17.70
2018-09-02T12:56:35.995Z,17.50
2018-09-02T12:59:05.174Z,17.40
2018-09-02T13:01:34.242Z,17.40
2018-09-02T13:04:03.140Z,17.40
2018-09-02T13:06:32.038Z,17.40
2018-09-02T13:09:01.033Z,17.50
2018-09-02T13:11:30.010Z,17.50
2018-09-02T13:13:58.946Z,17.60
2018-09-02T13:16:27.869Z,17.50
2018-09-02T13:18:56.824Z,17.50
2018-09-02T13:21:25.675Z,17.60
2018-09-02T13:23:54.699Z,17.60
2018-09-02T13:26:23.529Z,17.50
2018-09-02T13:28:52.534Z,17.50
2018-09-02T13:31:21.549Z,17.60
2018-09-02T13:33:50.542Z,17.60
2018-09-02T13:36:19.341Z,17.60
2018-09-02T13:38:48.217Z,17.50
2018-09-02T13:41:17.190Z,17.60
2018-09-02T13:43:46.094Z,17.60
2018-09-02T13:46:14.985Z,17.60
2018-09-02T13:48:44.018Z,17.60
2018-09-02T13:51:12.894Z,17.70
2018-09-02T13:53:41.786Z,17.70
2018-09-02T13:56:10.683Z,17.70
2018-09-02T13:58:39.725Z,17.80
2018-09-02T14:01:08.751Z,17.70
2018-09-02T14:03:37.654Z,17.80
2018-09-02T14:06:06.521Z,17.80
2018-09-02T14:08:35.567Z,17.90
2018-09-02T14:11:04.666Z,17.80
2018-09-02T14:13:33.578Z,17.80
2018-09-02T14:16:02.497Z,17.70
2018-09-02T14:18:31.466Z,17.70
2018-09-02T14:21:00.372Z,17.80
2018-09-02T14:23:32.298Z,17.70
2018-09-02T14:26:01.245Z,17.70
2018-09-02T14:28:30.347Z,17.60
2018-09-02T14:30:59.222Z,17.60
2018-09-02T14:33:28.154Z,17.60
2018-09-02T14:35:57.146Z,17.60
2018-09-02T14:38:26.146Z,17.70
2018-09-02T14:40:55.286Z,17.70
2018-09-02T14:43:24.170Z,17.60
2018-09-02T14:45:53.042Z,17.60
2018-09-02T14:48:21.954Z,17.60
2018-09-02T14:50:50.839Z,17.70
2018-09-02T14:53:19.695Z,17.70
2018-09-02T14:55:48.574Z,17.70
2018-09-02T14:58:17.491Z,17.70
2018-09-02T15:00:46.514Z,17.70
2018-09-02T15:03:15.393Z,17.70
2018-09-02T15:05:51.113Z,17.60
2018-09-02T15:08:20.002Z,17.70
2018-09-02T15:10:48.874Z,17.70
2018-09-02T15:13:17.770Z,17.60
2018-09-02T15:15:46.910Z,17.60
2018-09-02T15:18:15.862Z,17.60
2018-09-02T15:20:44.744Z,17.70
2018-09-02T15:23:13.681Z,17.80
2018-09-02T15:25:42.564Z,17.70
2018-09-02T15:28:11.457Z,17.70
2018-09-02T15:30:40.326Z,17.80
2018-09-02T15:33:09.227Z,17.80
2018-09-02T15:35:38.099Z,17.80
2018-09-02T15:38:06.986Z,17.80
2018-09-02T15:40:35.897Z,17.80
2018-09-02T15:43:04.918Z,17.80
2018-09-02T15:45:33.806Z,17.70
2018-09-02T15:48:02.758Z,17.70
2018-09-02T15:50:31.727Z,17.60
2018-09-02T15:53:00.639Z,17.70
2018-09-02T15:55:29.816Z,17.80
2018-09-02T15:57:58.793Z,17.70
2018-09-02T16:00:27.669Z,17.60
2018-09-02T16:02:56.562Z,17.60
2018-09-02T16:05:25.555Z,17.60
2018-09-02T16:07:54.497Z,17.70
2018-09-02T16:10:23.382Z,17.70
2018-09-02T16:12:52.403Z,17.80
2018-09-02T16:15:21.366Z,17.80
2018-09-02T16:17:50.257Z,17.80
2018-09-02T16:20:19.238Z,17.70
2018-09-02T16:22:48.118Z,17.70
2018-09-02T16:25:17.014Z,17.70
2018-09-02T16:27:45.914Z,17.80
2018-09-02T16:30:14.938Z,17.80
2018-09-02T16:32:43.930Z,17.80
2018-09-02T16:35:12.822Z,17.80
2018-09-02T16:37:41.727Z,17.70
2018-09-02T16:40:10.647Z,17.70
2018-09-02T16:42:39.570Z,17.70
2018-09-02T16:45:08.620Z,17.80
2018-09-02T16:47:37.530Z,17.70
2018-09-02T16:50:06.746Z,17.60
2018-09-02T16:52:35.740Z,17.50
2018-09-02T16:55:04.679Z,17.50
2018-09-02T16:57:33.570Z,17.60
2018-09-02T17:00:02.519Z,17.50
2018-09-02T17:02:31.562Z,17.50
2018-09-02T17:05:05.111Z,17.50
2018-09-02T17:07:34.014Z,17.50
2018-09-02T17:10:02.950Z,17.50
2018-09-02T17:12:33.027Z,17.50
2018-09-02T17:15:01.889Z,17.50
2018-09-02T17:17:30.893Z,17.50
2018-09-02T17:20:00.262Z,17.50
2018-09-02T17:22:29.170Z,17.50
2018-09-02T17:24:58.259Z,17.40
2018-09-02T17:27:27.145Z,17.50
2018-09-02T17:29:56.069Z,17.40
2018-09-02T17:32:25.670Z,17.40
2018-09-02T17:34:54.607Z,17.50
2018-09-02T17:37:23.478Z,17.50
2018-09-02T17:39:52.374Z,17.40
2018-09-02T17:42:21.238Z,17.30
2018-09-02T17:44:50.140Z,17.30
2018-09-02T17:47:19.015Z,17.30
2018-09-02T17:49:47.914Z,17.30
2018-09-02T17:52:16.822Z,17.20
2018-09-02T17:54:45.759Z,16.90
2018-09-02T17:57:14.654Z,16.90
2018-09-02T17:59:43.567Z,16.80
2018-09-02T18:02:12.511Z,16.80
2018-09-02T18:04:41.459Z,16.80
2018-09-02T18:07:10.358Z,16.80
2018-09-02T18:09:39.251Z,16.80
2018-09-02T18:12:08.129Z,16.70
2018-09-02T18:14:37.009Z,16.70
2018-09-02T18:17:05.959Z,16.70
2018-09-02T18:19:34.846Z,16.60
2018-09-02T18:22:03.773Z,16.70
2018-09-02T18:24:32.720Z,16.60
2018-09-02T18:27:01.604Z,16.50
2018-09-02T18:29:30.508Z,16.50
2018-09-02T18:31:59.490Z,16.60
2018-09-02T18:34:28.431Z,16.50
2018-09-02T18:36:57.368Z,16.50
2018-09-02T18:39:26.500Z,16.50
2018-09-02T18:41:55.316Z,16.40
2018-09-02T18:44:24.213Z,16.40
2018-09-02T18:46:53.146Z,16.40
2018-09-02T18:49:22.134Z,16.30
2018-09-02T18:51:51.163Z,16.30
2018-09-02T18:54:20.117Z,16.30
2018-09-02T18:56:49.011Z,16.30
2018-09-02T18:59:17.949Z,16.30
2018-09-02T19:01:46.958Z,16.30
2018-09-02T19:04:15.856Z,16.20
2018-09-02T19:06:44.744Z,16.20
2018-09-02T19:09:13.738Z,16.20
2018-09-02T19:11:42.857Z,16.20
2018-09-02T19:14:11.885Z,16.20
2018-09-02T19:16:40.817Z,16.20
2018-09-02T19:19:09.962Z,16.20
2018-09-02T19:21:38.871Z,16.20
2018-09-02T19:24:07.873Z,16.20
2018-09-02T19:26:36.786Z,16.20
2018-09-02T19:29:05.731Z,16.20
2018-09-02T19:31:34.886Z,16.30
2018-09-02T19:34:04.002Z,16.30
2018-09-02T19:36:33.022Z,16.30
2018-09-02T19:39:02.177Z,16.30
2018-09-02T19:41:31.151Z,16.20
2018-09-02T19:44:00.114Z,16.20
2018-09-02T19:46:29.469Z,16.20
2018-09-02T19:48:58.476Z,16.20
2018-09-02T19:51:27.458Z,16.20
2018-09-02T19:53:56.435Z,16.20
2018-09-02T19:56:25.454Z,16.20
2018-09-02T19:58:54.408Z,16.20
2018-09-02T20:01:23.369Z,16.10
2018-09-02T20:03:52.594Z,16.20
2018-09-02T20:06:21.553Z,16.20
2018-09-02T20:08:50.502Z,16.10
2018-09-02T20:11:19.481Z,16.20
2018-09-02T20:13:48.426Z,16.20
2018-09-02T20:16:17.368Z,16.10
2018-09-02T20:18:46.252Z,16.10
2018-09-02T20:21:15.242Z,16.10
2018-09-02T20:23:44.161Z,16.10
2018-09-02T20:26:13.154Z,16.10
2018-09-02T20:28:42.147Z,16.10
2018-09-02T20:31:11.170Z,16.00
2018-09-02T20:33:40.331Z,16.10
2018-09-02T20:36:10.122Z,16.10
2018-09-02T20:38:39.874Z,16.10
2018-09-02T20:41:08.914Z,16.10
2018-09-02T20:43:37.821Z,16.10
2018-09-02T20:46:06.805Z,16.00
2018-09-02T20:48:35.733Z,16.00
2018-09-02T20:51:04.777Z,16.10
2018-09-02T20:53:33.697Z,16.10
2018-09-02T20:56:03.087Z,16.10
2018-09-02T20:58:32.069Z,16.10
2018-09-02T21:01:01.033Z,16.10
2018-09-02T21:03:29.978Z,16.10
2018-09-02T21:05:59.187Z,16.00
2018-09-02T21:08:28.262Z,16.00
2018-09-02T21:10:57.242Z,15.90
2018-09-02T21:13:26.138Z,16.00
2018-09-02T21:15:55.190Z,16.00
2018-09-02T21:18:24.153Z,16.00
2018-09-02T21:20:53.081Z,16.00
2018-09-02T21:23:21.998Z,16.00
2018-09-02T21:25:50.987Z,16.10
2018-09-02T21:28:20.038Z,16.10
2018-09-02T21:30:49.002Z,16.10
2018-09-02T21:33:18.070Z,16.00
2018-09-02T21:35:47.031Z,16.00
2018-09-02T21:38:17.482Z,15.90
2018-09-02T21:40:46.483Z,15.90
2018-09-02T21:43:15.571Z,15.90
2018-09-02T21:45:44.531Z,15.80
2018-09-02T21:48:13.571Z,15.80
2018-09-02T21:50:42.662Z,15.80
2018-09-02T21:53:11.682Z,15.90
2018-09-02T21:55:40.730Z,15.90
2018-09-02T21:58:09.682Z,15.80
2018-09-02T22:00:40.935Z,15.70
2018-09-02T22:03:09.854Z,15.60
2018-09-02T22:05:38.961Z,15.50
2018-09-02T22:08:07.870Z,15.60
2018-09-02T22:10:37.068Z,15.60
2018-09-02T22:13:06.065Z,15.50
2018-09-02T22:15:35.090Z,15.40
2018-09-02T22:18:04.362Z,15.40
2018-09-02T22:20:33.372Z,15.40
2018-09-02T22:23:02.318Z,15.40
2018-09-02T22:25:31.382Z,15.30
2018-09-02T22:28:00.333Z,15.40
2018-09-02T22:30:29.358Z,15.40
2018-09-02T22:32:58.304Z,15.50
2018-09-02T22:35:27.283Z,15.50
2018-09-02T22:37:56.158Z,15.50
2018-09-02T22:40:25.190Z,15.50
2018-09-02T22:42:54.101Z,15.60
2018-09-02T22:45:23.073Z,15.60
2018-09-02T22:47:52.050Z,15.50
2018-09-02T22:50:20.998Z,15.50
2018-09-02T22:52:50.025Z,15.50
2018-09-02T22:55:19.078Z,15.50
2018-09-02T22:57:47.998Z,15.50
2018-09-02T23:00:16.933Z,15.50
2018-09-02T23:02:45.827Z,15.50
2018-09-02T23:05:14.830Z,15.50
2018-09-02T23:07:43.708Z,15.60
2018-09-02T23:10:12.617Z,15.50
2018-09-02T23:12:41.558Z,15.50
2018-09-02T23:15:10.463Z,15.60
2018-09-02T23:17:39.347Z,15.60
2018-09-02T23:20:08.293Z,15.60
2018-09-02T23:22:37.182Z,15.60
2018-09-02T23:25:06.146Z,15.50
2018-09-02T23:27:35.038Z,15.40
2018-09-02T23:30:04.062Z,15.40
2018-09-02T23:32:33.081Z,15.40
2018-09-02T23:35:01.990Z,15.40
2018-09-02T23:37:30.918Z,15.40
2018-09-02T23:39:59.844Z,15.40
2018-09-02T23:42:28.734Z,15.50
2018-09-02T23:44:57.675Z,15.50
2018-09-02T23:47:26.546Z,15.50
2018-09-02T23:49:55.502Z,15.50
2018-09-02T23:52:24.413Z,15.50
2018-09-02T23:54:53.333Z,15.50
2018-09-02T23:57:22.212Z,15.50
2018-09-02T23:59:51.471Z,15.50
